Weather at Werner Ranch Airfield

Public forecast

Using degrees Fahrenheit for public forecast. Weather courtesy of forecast.io.

Closest aviation weather report (METAR) to Werner Ranch Airfield

Closest report is Broken Bow Municipal Airport, 19.5 nm (36.1 km) ESE. Retrieved 2022/01/27 06:53 UTC (1 hour ago):

KBBW 270653Z AUTO 31009KT 10SM CLR M02/M06 A3008 RMK AO2 SLP208 T10221061

Closest aviation forecast (TAF) to Werner Ranch Airfield

Closest forecast is North Platte Regional Airport Lee Bird Field, 38.3 nm (70.9 km) SW. Retrieved 2022/01/27 06:22 UTC (2 hours ago):

TAF KLBF 270520Z 2706/2806 29006KT P6SM SCT180 FM271500 33011KT P6SM BKN090 FM271800 34014G22KT P6SM BKN040 FM272200 34013KT P6SM BKN035 FM280000 33006KT P6SM SCT070